Time;durP1;ratioP1;P1;durP2;ratioP2;P2;SDS_P1;SDS_P2;PMS_P1;PMS_P2;Temp;Humidity;BMP_temperature;BMP_pressure;BME280_temperature;BME280_humidity;BME280_pressure;Samples;Min_cycle;Max_cycle;Signal;HPM_P1;HPM_P2
2022/01/13 00:00:55;;;;;;;15.98;7.57;;;-11.10;95.90;;;;;;5056418;28;20051;-95
2022/01/13 00:03:21;;;;;;;14.80;7.28;;;-11.10;95.80;;;;;;5056484;28;20467;-95
2022/01/13 00:05:47;;;;;;;16.35;6.93;;;;;;;;;;5060509;28;20071;-95
2022/01/13 00:08:13;;;;;;;23.90;7.57;;;;;;;;;;5060421;28;20498;-95
2022/01/13 00:10:38;;;;;;;16.63;7.25;;;-9.50;96.50;;;;;;5060172;28;20532;-95
2022/01/13 00:13:09;;;;;;;21.55;7.20;;;;;;;;;;5060496;28;20032;-95
2022/01/13 00:18:38;;;;;;;15.52;6.45;;;-11.00;95.90;;;;;;5078253;28;20582;-95
2022/01/13 00:24:03;;;;;;;17.83;7.10;;;-11.00;95.80;;;;;;5044406;28;20064;-95
2022/01/13 00:26:31;;;;;;;19.25;7.60;;;-11.00;95.80;;;;;;5060224;28;20043;-95
2022/01/13 00:28:59;;;;;;;16.38;7.20;;;-11.00;95.90;;;;;;5059987;28;20082;-96
2022/01/13 00:31:29;;;;;;;22.30;8.30;;;-9.10;96.40;;;;;;5060513;28;20024;-95
2022/01/13 00:33:57;;;;;;;17.55;8.30;;;-11.00;96.00;;;;;;5060623;28;20021;-96
2022/01/13 00:36:28;;;;;;;18.83;7.82;;;-11.10;96.10;;;;;;5059753;28;20025;-95
2022/01/13 00:38:54;;;;;;;19.25;7.40;;;-7.10;97.10;;;;;;5059807;28;20024;-96
2022/01/13 00:41:22;;;;;;;18.27;7.93;;;-11.00;96.10;;;;;;5060058;28;20021;-95
2022/01/13 00:43:48;;;;;;;12.52;6.28;;;-11.00;96.10;;;;;;5059822;28;20037;-95
2022/01/13 00:46:27;;;;;;;13.90;7.00;;;-11.20;96.10;;;;;;5059706;28;20390;-95
2022/01/13 00:48:55;;;;;;;18.63;7.30;;;-11.30;96.10;;;;;;5059549;28;20021;-95
2022/01/13 00:51:22;;;;;;;15.10;7.53;;;-11.00;96.30;;;;;;5059445;28;20459;-96
2022/01/13 00:53:49;;;;;;;19.52;8.18;;;-11.00;96.30;;;;;;5059472;28;20115;-95
2022/01/13 00:56:16;;;;;;;15.93;7.97;;;-11.30;95.90;;;;;;5059330;28;20021;-96
2022/01/13 00:58:42;;;;;;;21.52;8.80;;;-11.10;96.20;;;;;;5060255;28;20032;-95
2022/01/13 01:01:08;;;;;;;22.73;8.90;;;-7.50;97.30;;;;;;5059715;28;20485;-95
2022/01/13 01:03:35;;;;;;;16.73;7.82;;;-11.10;96.50;;;;;;5059352;28;20090;-94
2022/01/13 01:06:03;;;;;;;19.75;7.68;;;-11.10;96.60;;;;;;5059089;28;20021;-95
2022/01/13 01:08:30;;;;;;;20.00;8.82;;;-11.10;96.70;;;;;;5059276;28;20028;-95
2022/01/13 01:10:56;;;;;;;18.10;7.95;;;-11.20;96.80;;;;;;5058977;28;20028;-95
2022/01/13 01:13:28;;;;;;;21.75;8.73;;;-11.30;96.90;;;;;;5059244;28;20024;-95
2022/01/13 01:15:57;;;;;;;17.98;8.50;;;-11.40;96.80;;;;;;5058759;28;20028;-95
2022/01/13 01:23:57;;;;;;;17.52;7.95;;;-11.30;97.20;;;;;;5076857;28;20451;-95
2022/01/13 01:29:19;;;;;;;17.98;8.13;;;-10.60;97.20;;;;;;5076904;28;20173;-95
2022/01/13 01:31:48;;;;;;;17.40;7.43;;;-9.20;97.50;;;;;;5059677;28;20021;-94
2022/01/13 01:37:13;;;;;;;15.23;7.70;;;-11.40;96.80;;;;;;5034595;28;20112;-95
2022/01/13 01:39:39;;;;;;;15.73;8.18;;;-11.40;96.60;;;;;;5038654;28;20040;-95
2022/01/13 01:42:05;;;;;;;15.25;7.60;;;;;;;;;;5055786;28;20033;-96
2022/01/13 01:44:39;;;;;;;18.25;9.25;;;-11.40;96.40;;;;;;5038937;28;20025;-95
2022/01/13 01:47:05;;;;;;;20.35;8.13;;;-11.50;96.50;;;;;;5055551;28;20029;-94
2022/01/13 01:49:38;;;;;;;19.15;8.23;;;-11.50;96.60;;;;;;5058256;28;20111;-94
2022/01/13 01:52:04;;;;;;;19.20;9.40;;;-11.50;96.70;;;;;;5058802;28;20037;-95
2022/01/13 01:54:30;;;;;;;22.80;8.75;;;-11.50;96.40;;;;;;5059290;28;20033;-95
2022/01/13 01:56:57;;;;;;;19.40;8.57;;;-11.50;96.60;;;;;;5058285;28;20105;-94
2022/01/13 01:59:27;;;;;;;19.80;8.55;;;-11.70;96.30;;;;;;5058162;28;20036;-95
2022/01/13 02:01:53;;;;;;;19.20;8.27;;;-11.50;96.50;;;;;;5058212;28;20107;-94
2022/01/13 02:04:20;;;;;;;22.23;8.32;;;-9.60;96.80;;;;;;5058969;28;20086;-95
2022/01/13 02:06:47;;;;;;;23.05;9.52;;;-11.60;96.40;;;;;;5057972;28;20380;-95
2022/01/13 02:09:16;;;;;;;19.30;8.70;;;-11.60;96.30;;;;;;5058818;28;20535;-95
2022/01/13 02:11:45;;;;;;;22.77;8.27;;;-11.60;96.40;;;;;;5058094;28;20391;-96
2022/01/13 02:17:09;;;;;;;18.98;8.82;;;-11.60;96.50;;;;;;5075864;28;20024;-94
2022/01/13 02:19:36;;;;;;;;;;;-11.60;96.30;;;;;;5058193;28;20534;-95
2022/01/13 02:22:02;;;;;;;24.52;10.05;;;-10.50;96.40;;;;;;5057967;28;19950;-94
2022/01/13 02:24:28;;;;;;;24.35;9.93;;;-11.70;96.10;;;;;;5057801;28;20028;-94
2022/01/13 02:26:55;;;;;;;20.15;8.57;;;-11.70;96.20;;;;;;5056868;28;20094;-95
2022/01/13 02:29:20;;;;;;;20.38;8.02;;;-11.70;96.50;;;;;;5058151;28;20067;-95
2022/01/13 02:31:46;;;;;;;20.48;9.13;;;-11.70;96.60;;;;;;5058079;28;20052;-94
2022/01/13 02:34:12;;;;;;;21.38;9.23;;;-11.70;96.50;;;;;;5057811;28;20025;-94
2022/01/13 02:36:39;;;;;;;20.90;9.05;;;-11.70;96.30;;;;;;5057667;28;20028;-94
2022/01/13 02:39:04;;;;;;;26.98;10.77;;;-11.70;96.20;;;;;;5057420;28;20024;-93
2022/01/13 02:41:30;;;;;;;23.67;10.23;;;-11.70;96.20;;;;;;5069406;28;20021;-94
2022/01/13 02:43:58;;;;;;;24.48;9.85;;;-11.70;96.10;;;;;;5037340;28;20029;-94
2022/01/13 02:49:17;;;;;;;22.60;9.43;;;-11.80;96.10;;;;;;5024396;28;20043;-94
2022/01/13 02:51:46;;;;;;;22.63;9.45;;;-11.70;96.20;;;;;;5037628;28;20029;-94
2022/01/13 02:54:12;;;;;;;18.27;9.02;;;-11.80;96.20;;;;;;5037369;28;20025;-94
2022/01/13 02:56:38;;;;;;;23.13;10.23;;;-11.70;96.30;;;;;;5045981;28;20032;-94
2022/01/13 02:59:05;;;;;;;24.20;9.57;;;-11.80;96.30;;;;;;5057988;28;20029;-94
2022/01/13 03:01:32;;;;;;;27.83;11.20;;;-11.80;96.30;;;;;;5056983;28;20035;-94
2022/01/13 03:04:01;;;;;;;27.23;9.93;;;-11.70;96.40;;;;;;5057137;28;20502;-94
2022/01/13 03:06:37;;;;;;;22.15;10.85;;;-11.70;96.30;;;;;;5057169;28;20028;-94
2022/01/13 03:09:05;;;;;;;27.40;11.35;;;-11.80;96.10;;;;;;5062993;28;20021;-95
2022/01/13 03:11:34;;;;;;;27.15;10.93;;;-11.80;96.00;;;;;;5037331;28;20021;-94
2022/01/13 03:14:02;;;;;;;25.70;10.35;;;-11.90;96.00;;;;;;5036857;28;20034;-94
2022/01/13 03:16:29;;;;;;;24.23;11.55;;;-11.90;96.10;;;;;;5037110;28;20036;-94
2022/01/13 03:18:55;;;;;;;31.58;10.98;;;-11.90;96.10;;;;;;5037586;28;20021;-94
2022/01/13 03:21:21;;;;;;;24.23;10.18;;;-11.70;96.20;;;;;;5037222;28;20051;-94
2022/01/13 03:23:46;;;;;;;32.40;10.57;;;-11.90;96.30;;;;;;5048206;28;20474;-94
2022/01/13 03:26:12;;;;;;;32.88;12.20;;;-11.90;96.40;;;;;;5073272;28;20107;-95
2022/01/13 03:28:39;;;;;;;24.20;10.75;;;-11.90;96.40;;;;;;5073393;28;20044;-94
2022/01/13 03:31:07;;;;;;;28.88;11.93;;;-11.90;96.50;;;;;;5074190;28;20024;-94
2022/01/13 03:33:34;;;;;;;26.35;10.82;;;-12.00;96.50;;;;;;5056953;28;20091;-94
2022/01/13 03:36:02;;;;;;;26.17;11.25;;;-11.90;96.50;;;;;;5056371;28;20031;-94
2022/01/13 03:38:30;;;;;;;25.77;10.50;;;-11.40;96.70;;;;;;5056346;28;20092;-94
2022/01/13 03:40:56;;;;;;;26.70;11.70;;;;;;;;;;5056854;28;20116;-95
2022/01/13 03:43:22;;;;;;;28.60;11.85;;;-11.90;96.30;;;;;;5056569;28;20067;-95
2022/01/13 03:45:48;;;;;;;29.65;11.68;;;-11.90;96.40;;;;;;5057302;28;20025;-95
2022/01/13 03:48:14;;;;;;;28.30;11.82;;;-11.80;96.50;;;;;;5056404;28;20028;-94
2022/01/13 03:50:44;;;;;;;28.40;10.60;;;-11.60;96.60;;;;;;5056502;28;20021;-95
2022/01/13 03:53:27;;;;;;;28.05;11.85;;;-11.90;96.50;;;;;;5056516;28;20025;-94
2022/01/13 03:56:31;;;;;;;29.88;12.95;;;-11.90;96.60;;;;;;5056477;28;20079;-94
2022/01/13 03:59:27;;;;;;;34.90;12.63;;;-11.90;96.60;;;;;;5056904;28;20039;-94
2022/01/13 04:02:08;;;;;;;26.95;11.85;;;-11.80;96.40;;;;;;5056180;28;20474;-94
2022/01/13 04:04:48;;;;;;;31.92;12.90;;;-11.90;96.40;;;;;;5057195;28;20033;-93
2022/01/13 04:07:25;;;;;;;33.17;11.95;;;-11.90;96.40;;;;;;5056690;28;20058;-94
2022/01/13 04:09:50;;;;;;;33.95;12.85;;;-12.00;96.30;;;;;;5056360;28;20036;-93
2022/01/13 04:12:19;;;;;;;27.70;11.40;;;-11.90;96.40;;;;;;5056075;28;20378;-94
2022/01/13 04:14:49;;;;;;;30.83;11.70;;;-12.00;96.30;;;;;;5056275;28;20090;-93
2022/01/13 04:17:17;;;;;;;29.63;13.23;;;-12.10;96.20;;;;;;5073155;28;20115;-94
2022/01/13 04:19:45;;;;;;;26.33;11.52;;;-12.10;96.30;;;;;;5056191;28;20101;-94
2022/01/13 04:22:12;;;;;;;25.67;11.70;;;-12.10;96.40;;;;;;5056452;28;20021;-93
2022/01/13 04:24:39;;;;;;;29.63;12.48;;;-12.10;96.50;;;;;;5056261;28;20034;-94
2022/01/13 04:27:08;;;;;;;29.33;12.95;;;-12.20;96.60;;;;;;5052868;28;20041;-93
2022/01/13 04:29:37;;;;;;;27.48;10.63;;;-12.20;96.60;;;;;;5052802;28;20483;-94
2022/01/13 04:32:04;;;;;;;25.17;11.38;;;-12.20;96.60;;;;;;5052835;28;20025;-94
2022/01/13 04:34:31;;;;;;;32.92;11.82;;;-12.10;96.60;;;;;;5053246;28;20033;-93
2022/01/13 04:36:59;;;;;;;29.65;12.35;;;-12.20;96.50;;;;;;5053556;28;20025;-94
2022/01/13 04:39:27;;;;;;;31.02;12.88;;;-12.20;96.30;;;;;;5052399;28;20031;-94
2022/01/13 04:41:53;;;;;;;25.92;10.70;;;-11.40;96.70;;;;;;5053161;28;20119;-93
2022/01/13 04:44:21;;;;;;;31.75;13.13;;;-12.20;96.50;;;;;;5052611;28;20032;-94
2022/01/13 04:46:50;;;;;;;29.75;12.48;;;-12.20;96.40;;;;;;5052568;28;20354;-94
2022/01/13 04:49:19;;;;;;;39.38;13.55;;;-12.20;96.50;;;;;;5052577;28;20048;-93
2022/01/13 04:51:46;;;;;;;28.33;12.48;;;-12.30;96.60;;;;;;5057339;28;20043;-93
2022/01/13 04:54:12;;;;;;;31.92;14.10;;;-12.20;96.70;;;;;;5056472;28;20029;-93
2022/01/13 04:56:45;;;;;;;35.05;13.43;;;-12.20;96.70;;;;;;5056228;28;20111;-94
2022/01/13 04:59:11;;;;;;;38.25;15.02;;;-12.20;96.70;;;;;;5056229;28;20025;-93
2022/01/13 05:01:38;;;;;;;37.88;15.95;;;-12.20;96.80;;;;;;5056066;28;20097;-93
2022/01/13 05:04:06;;;;;;;28.75;12.77;;;-12.20;96.80;;;;;;5054565;28;20040;-93
2022/01/13 05:06:32;;;;;;;36.10;13.27;;;-12.30;96.80;;;;;;5056139;28;20466;-94
2022/01/13 05:08:58;;;;;;;39.15;14.38;;;-12.20;96.80;;;;;;5056199;28;20024;-93
2022/01/13 05:11:24;;;;;;;28.88;12.93;;;-12.20;96.80;;;;;;5056134;28;20025;-95
2022/01/13 05:13:50;;;;;;;39.22;15.35;;;-12.20;96.70;;;;;;5055695;28;20021;-94
2022/01/13 05:16:29;;;;;;;33.60;14.38;;;-12.20;96.80;;;;;;5055672;28;20021;-93
2022/01/13 05:21:26;;;;;;;30.55;11.75;;;-12.30;96.80;;;;;;5067574;28;20035;-94
2022/01/13 05:23:53;;;;;;;40.47;14.98;;;-12.30;96.80;;;;;;5043326;28;20040;-94
2022/01/13 05:26:23;;;;;;;36.70;12.40;;;-12.30;96.90;;;;;;5058002;28;20593;-94
2022/01/13 05:28:49;;;;;;;35.35;13.90;;;-12.30;97.10;;;;;;5058945;28;20043;-94
2022/01/13 05:31:15;;;;;;;37.90;15.95;;;-12.30;97.00;;;;;;5058826;28;20028;-95
2022/01/13 05:33:42;;;;;;;39.17;14.57;;;-12.40;97.10;;;;;;5058653;28;20082;-94
2022/01/13 05:36:07;;;;;;;36.35;14.57;;;-12.40;97.20;;;;;;5059174;28;20024;-94
2022/01/13 05:38:33;;;;;;;46.83;16.05;;;-12.40;97.20;;;;;;5058833;28;20074;-94
2022/01/13 05:40:59;;;;;;;50.08;17.33;;;-12.40;97.30;;;;;;5075838;28;20074;-94
2022/01/13 05:43:25;;;;;;;47.65;17.13;;;-12.40;97.50;;;;;;5075199;28;20028;-94
2022/01/13 05:45:51;;;;;;;36.20;14.20;;;-12.40;97.60;;;;;;5075667;28;20024;-95
2022/01/13 14:37:27;;;;;;;59.53;22.67;;;-3.90;99.90;;;;;;5092066;28;20444;-89
2022/01/13 14:40:11;;;;;;;62.63;23.98;;;-4.70;99.90;;;;;;5087818;28;20033;-89
2022/01/13 14:42:38;;;;;;;58.10;23.88;;;-4.70;99.90;;;;;;5070615;28;20033;-89
2022/01/13 14:45:26;;;;;;;62.58;23.80;;;-4.70;99.90;;;;;;5070707;28;20021;-88
2022/01/13 14:47:52;;;;;;;72.88;27.55;;;-4.60;99.90;;;;;;5070735;28;20033;-89
2022/01/13 14:50:19;;;;;;;60.92;26.08;;;-4.60;99.90;;;;;;5070156;28;20033;-88
2022/01/13 14:52:49;;;;;;;59.03;22.75;;;-4.50;99.90;;;;;;5070630;28;20430;-89
2022/01/13 14:55:17;;;;;;;60.33;23.75;;;-4.50;99.90;;;;;;5070282;28;20025;-89
2022/01/13 14:57:42;;;;;;;64.32;24.45;;;-4.50;99.90;;;;;;5070915;28;20171;-89
2022/01/13 15:00:09;;;;;;;72.40;26.27;;;-4.50;99.90;;;;;;5070992;28;20483;-88
2022/01/13 15:02:36;;;;;;;77.90;28.50;;;-4.40;99.90;;;;;;5070601;28;20027;-89
2022/01/13 15:05:02;;;;;;;71.85;27.30;;;-4.40;99.90;;;;;;5070925;28;20025;-89
2022/01/13 15:07:28;;;;;;;66.53;24.50;;;-4.40;99.90;;;;;;5070232;28;20094;-89
2022/01/13 15:09:54;;;;;;;70.07;27.17;;;-4.30;99.90;;;;;;5069847;28;20471;-88
2022/01/13 15:12:19;;;;;;;62.58;25.88;;;-4.30;99.90;;;;;;5070263;28;20383;-88
2022/01/13 15:14:45;;;;;;;64.88;23.20;;;-4.30;99.90;;;;;;5069889;28;20020;-89
2022/01/13 15:17:12;;;;;;;57.25;24.08;;;-4.30;99.90;;;;;;5069794;28;20032;-88
2022/01/13 15:19:40;;;;;;;60.95;25.02;;;-4.30;99.90;;;;;;5078773;28;20504;-89
2022/01/13 15:22:05;;;;;;;67.07;25.27;;;-4.30;99.90;;;;;;5089711;28;20082;-88
2022/01/13 15:24:31;;;;;;;65.40;25.77;;;-4.30;99.90;;;;;;5089754;28;20509;-89
2022/01/13 15:26:56;;;;;;;73.18;29.20;;;-4.20;99.90;;;;;;5079961;28;20036;-89
2022/01/13 15:29:22;;;;;;;72.65;29.85;;;-4.20;99.90;;;;;;5087948;28;20028;-89
2022/01/13 15:31:48;;;;;;;65.20;26.42;;;-4.20;99.90;;;;;;5089759;28;20036;-89
2022/01/13 15:34:13;;;;;;;65.38;27.42;;;-4.20;99.90;;;;;;5089699;28;20051;-89
2022/01/13 15:36:40;;;;;;;61.25;25.08;;;-4.10;99.90;;;;;;5078983;28;20057;-89
2022/01/13 15:39:05;;;;;;;60.78;25.33;;;-4.10;99.90;;;;;;5075793;28;20121;-89
2022/01/13 15:41:35;;;;;;;61.03;24.40;;;-4.10;99.90;;;;;;5073060;28;20061;-89
2022/01/13 15:44:01;;;;;;;71.75;28.58;;;-4.10;99.90;;;;;;5069166;28;20111;-90
2022/01/13 15:47:50;;;;;;;68.80;26.20;;;-4.00;99.90;;;;;;5166155;27;20417;-88
2022/01/13 15:50:20;;;;;;;57.22;25.17;;;-4.00;99.90;;;;;;5131426;27;20023;-88
2022/01/13 15:52:46;;;;;;;63.65;25.45;;;-4.00;99.90;;;;;;5113071;28;20020;-88
2022/01/13 15:55:12;;;;;;;63.05;24.70;;;-3.90;99.90;;;;;;5110906;28;20020;-88
2022/01/13 15:57:38;;;;;;;62.72;24.90;;;-4.00;99.90;;;;;;5110898;28;20046;-88
2022/01/13 16:00:09;;;;;;;55.13;22.58;;;-4.00;99.90;;;;;;5110861;28;20058;-89
2022/01/13 16:02:35;;;;;;;60.95;24.73;;;-3.90;99.90;;;;;;5111789;28;20101;-88
2022/01/13 16:05:01;;;;;;;63.38;24.73;;;-3.90;99.90;;;;;;5110946;28;20027;-91
2022/01/13 16:07:26;;;;;;;61.03;26.70;;;-3.90;99.90;;;;;;5115833;28;20474;-90
2022/01/13 16:09:52;;;;;;;65.68;24.75;;;-4.00;99.90;;;;;;5130391;28;20188;-92
2022/01/13 16:12:17;;;;;;;59.95;24.48;;;-3.90;99.90;;;;;;5130895;27;20373;-90
2022/01/13 16:14:45;;;;;;;60.17;24.48;;;-3.90;99.90;;;;;;5131175;27;20020;-95
2022/01/13 16:17:11;;;;;;;62.55;25.27;;;-3.90;99.90;;;;;;5132339;27;20020;-90
2022/01/13 16:19:37;;;;;;;57.55;25.90;;;-3.90;99.90;;;;;;5131062;27;20469;-91
2022/01/13 16:22:03;;;;;;;57.63;25.25;;;-3.90;99.90;;;;;;5130349;27;20023;-89
2022/01/13 16:24:28;;;;;;;54.90;23.17;;;-3.90;99.90;;;;;;5130542;27;20024;-90
2022/01/13 16:26:54;;;;;;;60.90;25.48;;;-3.90;99.90;;;;;;5132393;28;20493;-90
2022/01/13 16:29:53;;;;;;;65.38;25.92;;;-3.80;99.90;;;;;;5131313;27;20015;-90
2022/01/13 16:32:27;;;;;;;61.00;24.65;;;-3.80;99.90;;;;;;5130593;27;20110;-90
2022/01/13 16:34:53;;;;;;;59.33;23.63;;;-3.80;99.90;;;;;;5130859;27;20465;-90
2022/01/13 16:37:19;;;;;;;67.88;27.30;;;-3.80;99.90;;;;;;5130553;27;20019;-91
2022/01/13 16:39:45;;;;;;;54.83;23.40;;;-3.80;99.90;;;;;;5130658;28;20511;-88
2022/01/13 16:42:11;;;;;;;67.40;26.13;;;-3.80;99.90;;;;;;5130483;27;20115;-90
2022/01/13 16:44:41;;;;;;;61.22;25.80;;;-3.70;99.90;;;;;;5130174;27;20066;-89
2022/01/13 16:47:10;;;;;;;57.17;24.33;;;-3.70;99.90;;;;;;5129594;27;20087;-90
2022/01/13 16:49:39;;;;;;;61.13;25.75;;;-3.70;99.90;;;;;;5129170;27;20024;-90
2022/01/13 16:52:06;;;;;;;61.03;25.30;;;-3.70;99.90;;;;;;5130148;27;20065;-90
2022/01/13 16:54:33;;;;;;;54.58;24.35;;;-3.70;99.90;;;;;;5129843;27;20023;-91
2022/01/13 16:56:58;;;;;;;54.65;23.60;;;-3.70;99.90;;;;;;5129251;27;20436;-90
2022/01/13 16:59:26;;;;;;;59.08;24.63;;;-3.60;99.90;;;;;;5115134;28;20019;-91
2022/01/13 17:01:52;;;;;;;63.45;25.00;;;-3.60;99.90;;;;;;5116306;28;20064;-90
2022/01/13 17:04:18;;;;;;;60.45;25.70;;;-3.70;99.90;;;;;;5116551;27;20592;-90
2022/01/13 17:06:44;;;;;;;56.88;23.63;;;-3.60;99.90;;;;;;5116045;28;20062;-90
2022/01/13 17:09:11;;;;;;;57.60;24.17;;;-3.60;99.90;;;;;;5117290;28;20107;-90
2022/01/13 17:11:36;;;;;;;66.72;24.83;;;-3.60;99.90;;;;;;5116268;28;20081;-89
2022/01/13 17:14:03;;;;;;;59.10;25.85;;;-3.60;99.90;;;;;;5115974;28;20066;-90
2022/01/13 17:16:28;;;;;;;63.47;25.77;;;-3.60;99.90;;;;;;5116311;28;20362;-88
2022/01/13 17:18:54;;;;;;;67.32;27.67;;;-3.50;99.90;;;;;;5117350;28;20027;-89
2022/01/13 17:21:20;;;;;;;63.60;26.83;;;-3.60;99.90;;;;;;5115941;28;20427;-90
2022/01/13 17:23:46;;;;;;;56.35;25.13;;;-3.50;99.90;;;;;;5115921;28;20031;-91
2022/01/13 17:26:12;;;;;;;63.90;26.58;;;-3.60;99.90;;;;;;5115049;28;20039;-90
2022/01/13 17:28:38;;;;;;;61.15;25.38;;;-3.50;99.90;;;;;;5115925;28;20024;-89
2022/01/13 17:31:07;;;;;;;60.90;25.48;;;-3.40;99.90;;;;;;5100956;28;20047;-90
2022/01/13 17:33:34;;;;;;;61.55;25.70;;;-3.40;99.90;;;;;;5095407;28;20484;-89
2022/01/13 17:36:00;;;;;;;69.63;30.17;;;-3.30;99.90;;;;;;5095210;28;20371;-90
2022/01/13 17:38:27;;;;;;;77.40;32.13;;;-3.30;99.90;;;;;;5095204;28;20114;-89
2022/01/13 17:40:54;;;;;;;74.85;29.75;;;-3.30;99.90;;;;;;5095368;28;20066;-90
2022/01/13 17:43:21;;;;;;;65.25;27.08;;;-3.30;99.90;;;;;;5112360;28;20024;-88
2022/01/13 17:45:47;;;;;;;67.10;27.63;;;-3.30;99.90;;;;;;5115075;28;20052;-88
2022/01/13 17:48:14;;;;;;;69.38;26.77;;;-3.20;99.90;;;;;;5115173;28;20893;-89
2022/01/13 17:50:40;;;;;;;76.15;30.13;;;-3.20;99.90;;;;;;5115603;28;20016;-90
2022/01/13 17:53:06;;;;;;;81.03;30.90;;;-3.20;99.90;;;;;;5115739;28;20024;-90
2022/01/13 17:55:33;;;;;;;74.75;30.00;;;-3.10;99.90;;;;;;5115458;28;20020;-90
2022/01/13 17:58:00;;;;;;;64.25;27.20;;;-3.10;99.90;;;;;;5115426;28;20044;-90
2022/01/13 18:00:25;;;;;;;80.70;33.85;;;-3.00;99.90;;;;;;5115374;28;20016;-91
2022/01/13 18:02:51;;;;;;;64.60;28.13;;;-3.00;99.90;;;;;;5114364;28;20020;-89
2022/01/13 18:05:17;;;;;;;72.63;30.00;;;-2.90;99.90;;;;;;5114987;28;20026;-90
2022/01/13 18:07:43;;;;;;;69.72;30.23;;;-2.90;99.90;;;;;;5114386;28;20028;-90
2022/01/13 18:10:11;;;;;;;76.35;29.88;;;-2.90;99.90;;;;;;5114016;27;20058;-90
2022/01/13 18:12:37;;;;;;;68.35;29.08;;;-2.90;99.90;;;;;;5114973;28;20020;-90
2022/01/13 18:15:05;;;;;;;78.82;29.73;;;-2.80;99.90;;;;;;5114954;28;20024;-89
2022/01/13 18:17:31;;;;;;;74.00;31.25;;;-2.70;99.90;;;;;;5114462;28;20058;-89
2022/01/13 18:19:58;;;;;;;73.20;30.48;;;-2.70;99.90;;;;;;5114754;28;20504;-90
2022/01/13 18:22:24;;;;;;;62.38;26.45;;;-2.70;99.90;;;;;;5114602;28;20034;-91
2022/01/13 18:24:50;;;;;;;65.85;27.50;;;-2.60;99.90;;;;;;5114916;28;20039;-91
2022/01/13 18:27:16;;;;;;;68.35;28.15;;;-2.70;99.90;;;;;;5114184;28;20028;-91
2022/01/13 18:29:43;;;;;;;65.47;27.73;;;-2.60;99.90;;;;;;5114366;28;20034;-89
2022/01/13 18:32:10;;;;;;;68.88;28.90;;;-2.60;99.90;;;;;;5114692;28;20067;-90
2022/01/13 18:34:36;;;;;;;66.15;27.40;;;-2.60;99.90;;;;;;5114185;28;20485;-90
2022/01/13 18:37:03;;;;;;;71.13;28.40;;;-2.50;99.90;;;;;;5114257;28;20038;-90
2022/01/13 18:39:29;;;;;;;68.93;30.02;;;-2.50;99.90;;;;;;5114172;27;20039;-90
2022/01/13 18:41:56;;;;;;;66.45;27.13;;;-2.50;99.90;;;;;;5114181;28;20027;-91
2022/01/13 18:44:24;;;;;;;63.67;28.30;;;-2.40;99.90;;;;;;5114585;28;20028;-91
2022/01/13 18:46:51;;;;;;;65.97;26.52;;;-2.40;99.90;;;;;;5113475;28;20055;-90
2022/01/13 18:49:18;;;;;;;73.47;28.40;;;-2.40;99.90;;;;;;5114036;28;20024;-90
2022/01/13 18:51:45;;;;;;;65.47;26.38;;;-2.30;99.90;;;;;;5114711;28;20022;-91
2022/01/13 18:54:13;;;;;;;63.53;26.55;;;-2.30;99.90;;;;;;5113991;28;20023;-91
2022/01/13 18:56:41;;;;;;;71.38;26.23;;;-2.30;99.90;;;;;;5114341;28;20051;-91
2022/01/13 18:59:07;;;;;;;66.40;26.77;;;-2.30;99.90;;;;;;5113677;28;20081;-91
2022/01/13 19:01:32;;;;;;;67.90;27.08;;;-2.20;99.90;;;;;;5114438;28;20346;-90
2022/01/13 19:03:58;;;;;;;67.63;26.65;;;-2.20;99.90;;;;;;5114162;28;20589;-91
2022/01/13 19:06:24;;;;;;;73.72;28.33;;;-2.20;99.90;;;;;;5114022;28;20024;-91
2022/01/13 19:08:49;;;;;;;72.50;28.77;;;-2.20;99.90;;;;;;5114164;28;20107;-91
2022/01/13 19:11:15;;;;;;;64.07;28.15;;;-2.10;99.90;;;;;;5114186;28;20028;-91
2022/01/13 19:13:41;;;;;;;65.97;28.52;;;-2.10;99.90;;;;;;5113880;28;20027;-90
2022/01/13 19:16:09;;;;;;;70.60;29.98;;;-2.10;99.90;;;;;;5114186;28;20024;-90
2022/01/13 19:18:40;;;;;;;79.80;31.08;;;-2.10;99.90;;;;;;5115072;28;20473;-90
2022/01/13 19:21:06;;;;;;;;;;;-2.00;99.90;;;;;;5114239;28;20042;-91
2022/01/13 19:23:33;;;;;;;71.15;27.80;;;-2.10;99.90;;;;;;5113636;28;19904;-92
2022/01/13 19:26:02;;;;;;;70.22;27.10;;;-2.00;99.90;;;;;;5113813;28;20496;-90
2022/01/13 19:28:28;;;;;;;71.13;27.77;;;-2.00;99.90;;;;;;5113901;28;20020;-91
2022/01/13 19:30:53;;;;;;;66.85;26.55;;;-2.00;99.90;;;;;;5114020;28;20034;-90
2022/01/13 19:33:19;;;;;;;71.75;28.65;;;-2.00;99.90;;;;;;5113635;28;20439;-92
2022/01/13 19:35:45;;;;;;;73.97;28.88;;;-1.90;99.90;;;;;;5113759;28;20020;-90
2022/01/13 19:38:11;;;;;;;71.28;27.20;;;-1.90;99.90;;;;;;5113691;28;20110;-91
2022/01/13 19:40:37;;;;;;;78.60;26.15;;;-1.90;99.90;;;;;;5114472;28;20079;-92
2022/01/13 19:43:04;;;;;;;67.20;27.92;;;-1.90;99.90;;;;;;5113792;28;20028;-92
2022/01/13 19:45:30;;;;;;;65.55;26.85;;;-1.90;99.90;;;;;;5113154;28;20019;-90
2022/01/13 19:47:59;;;;;;;69.05;26.85;;;-1.90;99.90;;;;;;5114893;28;20381;-90
2022/01/13 19:50:26;;;;;;;74.50;29.63;;;-1.90;99.90;;;;;;5113940;28;20058;-91
2022/01/13 19:52:55;;;;;;;68.88;26.48;;;-1.80;99.90;;;;;;5113736;28;20350;-90
2022/01/13 19:55:21;;;;;;;61.17;25.77;;;-1.80;99.90;;;;;;5113712;28;20051;-91
2022/01/13 19:57:49;;;;;;;84.53;31.85;;;-1.80;99.90;;;;;;5113538;28;20118;-96
2022/01/13 20:00:17;;;;;;;65.45;26.40;;;-1.80;99.90;;;;;;5114128;28;20023;-96
2022/01/13 20:02:43;;;;;;;65.32;27.10;;;-1.80;99.90;;;;;;5113853;28;20027;-96
2022/01/13 20:05:10;;;;;;;70.45;25.55;;;-1.70;99.90;;;;;;5113942;28;20496;-95
2022/01/13 20:07:36;;;;;;;71.28;26.73;;;-1.70;99.90;;;;;;5113431;28;20027;-96
2022/01/13 20:10:02;;;;;;;66.55;26.98;;;-1.70;99.90;;;;;;5113597;28;20024;-96
2022/01/13 20:12:31;;;;;;;56.92;23.83;;;-1.70;99.90;;;;;;5113631;28;20020;-95
2022/01/13 20:14:57;;;;;;;65.47;24.92;;;-1.60;99.90;;;;;;5113567;28;20043;-93
2022/01/13 20:17:22;;;;;;;60.97;24.67;;;-1.60;99.90;;;;;;5113501;28;20481;-93
2022/01/13 20:19:49;;;;;;;69.13;26.95;;;-1.60;99.90;;;;;;5113285;28;20024;-94
2022/01/13 20:22:15;;;;;;;60.38;25.67;;;-1.50;99.90;;;;;;5113415;28;20043;-94
2022/01/13 20:24:43;;;;;;;65.60;27.08;;;-1.50;99.90;;;;;;5113598;28;20092;-92
2022/01/13 20:27:10;;;;;;;69.78;28.67;;;-1.50;99.90;;;;;;5112765;28;20067;-94
2022/01/13 20:29:36;;;;;;;61.45;26.75;;;-1.50;99.90;;;;;;5113390;28;20019;-93
2022/01/13 20:32:02;;;;;;;56.33;24.13;;;-1.50;99.90;;;;;;5113749;28;20026;-93
2022/01/13 20:34:28;;;;;;;56.25;23.60;;;-1.40;99.90;;;;;;5116791;28;20023;-94
2022/01/13 20:36:54;;;;;;;65.20;25.67;;;-1.40;99.90;;;;;;5117272;28;20492;-93
2022/01/13 20:39:20;;;;;;;55.22;23.65;;;-1.40;99.90;;;;;;5117144;28;20051;-95
2022/01/13 20:41:45;;;;;;;56.38;24.83;;;-1.40;99.90;;;;;;5116979;28;20028;-93
2022/01/13 20:44:13;;;;;;;58.60;25.80;;;-1.40;99.90;;;;;;5117202;28;20534;-93
2022/01/13 20:46:40;;;;;;;55.67;22.52;;;-1.30;99.90;;;;;;5116730;28;20043;-94
2022/01/13 20:49:06;;;;;;;51.30;20.52;;;-1.30;99.90;;;;;;5116870;28;20466;-93
2022/01/13 20:51:32;;;;;;;60.67;24.90;;;-1.30;99.90;;;;;;5116880;28;20068;-94
2022/01/13 20:53:58;;;;;;;54.47;23.45;;;-1.30;99.90;;;;;;5116858;28;20019;-93
2022/01/13 20:56:23;;;;;;;60.85;24.50;;;-1.30;99.90;;;;;;5116894;28;20473;-94
2022/01/13 20:58:49;;;;;;;59.95;23.92;;;-1.30;99.90;;;;;;5116692;28;20448;-95
2022/01/13 21:01:16;;;;;;;60.40;23.88;;;-1.30;99.90;;;;;;5116777;28;20058;-94
2022/01/13 21:03:45;;;;;;;59.15;22.95;;;-1.30;99.90;;;;;;5117120;28;20533;-92
2022/01/13 21:06:11;;;;;;;69.45;25.10;;;-1.20;99.90;;;;;;5116861;28;20019;-92
2022/01/13 21:08:40;;;;;;;58.88;25.67;;;-1.20;99.90;;;;;;5116420;28;20068;-92
2022/01/13 21:11:07;;;;;;;78.07;31.95;;;-1.10;99.90;;;;;;5116593;28;20377;-91
2022/01/13 21:13:34;;;;;;;137.73;60.50;;;-1.10;99.90;;;;;;5116406;28;20058;-91
2022/01/13 21:16:00;;;;;;;151.10;42.88;;;-1.10;99.90;;;;;;5116595;28;20073;-94
2022/01/13 21:18:26;;;;;;;200.70;45.15;;;-1.10;99.90;;;;;;5116375;28;20389;-94
2022/01/13 21:20:52;;;;;;;114.22;33.47;;;-1.00;99.90;;;;;;5116406;28;20426;-94
2022/01/13 21:23:18;;;;;;;97.45;30.65;;;-1.00;99.90;;;;;;5116249;28;20112;-93
2022/01/13 21:25:44;;;;;;;102.35;30.95;;;-1.00;99.90;;;;;;5116262;28;20397;-94
2022/01/13 21:28:10;;;;;;;100.15;28.15;;;-1.00;99.90;;;;;;5116271;28;20084;-95
2022/01/13 21:30:35;;;;;;;68.95;23.98;;;-0.90;99.90;;;;;;5116128;28;20043;-94
2022/01/13 21:33:01;;;;;;;144.43;36.90;;;-0.90;99.90;;;;;;5116100;28;20038;-94
2022/01/13 21:35:28;;;;;;;104.60;29.58;;;-0.90;99.90;;;;;;5116221;28;20026;-95
2022/01/13 21:37:54;;;;;;;85.28;26.92;;;-0.90;99.90;;;;;;5115975;28;20038;-93
2022/01/13 21:40:22;;;;;;;112.22;30.15;;;-0.90;99.90;;;;;;5115876;28;20028;-93
2022/01/13 21:42:52;;;;;;;83.10;26.77;;;-0.80;99.90;;;;;;5115778;28;20028;-93
2022/01/13 21:45:18;;;;;;;155.88;40.05;;;-0.90;99.90;;;;;;5115821;28;20469;-93